createdAt,value
2022-09-05T00:02:21.133Z,19.70
2022-09-05T00:05:05.240Z,19.70
2022-09-05T00:07:58.325Z,19.60
2022-09-05T00:11:05.545Z,19.60
2022-09-05T00:13:40.967Z,19.60
2022-09-05T00:16:53.264Z,19.60
2022-09-05T00:24:18.560Z,19.50
2022-09-05T00:24:26.076Z,19.50
2022-09-05T00:25:57.655Z,19.40
2022-09-05T00:28:47.310Z,19.40
2022-09-05T00:31:54.176Z,19.40
2022-09-05T00:34:50.295Z,19.30
2022-09-05T00:37:32.284Z,19.30
2022-09-05T00:40:26.296Z,19.20
2022-09-05T00:42:58.794Z,19.20
2022-09-05T00:45:42.339Z,19.10
2022-09-05T00:48:21.331Z,19.10
2022-09-05T00:51:08.288Z,19.10
2022-09-05T00:53:45.808Z,19.00
2022-09-05T00:56:45.306Z,18.90
2022-09-05T00:59:52.030Z,18.90
2022-09-05T01:02:51.500Z,18.90
2022-09-05T01:05:36.032Z,18.80
2022-09-05T01:08:27.469Z,18.80
2022-09-05T01:11:10.375Z,18.80
2022-09-05T01:13:53.482Z,18.70
2022-09-05T01:16:29.938Z,18.70
2022-09-05T01:19:21.470Z,18.70
2022-09-05T01:22:17.663Z,18.70
2022-09-05T01:25:17.312Z,18.70
2022-09-05T01:28:43.266Z,18.60
2022-09-05T01:31:03.381Z,18.60
2022-09-05T01:33:43.345Z,18.50
2022-09-05T01:36:29.345Z,18.50
2022-09-05T01:40:12.034Z,18.50
2022-09-05T01:42:07.415Z,18.50
2022-09-05T01:44:51.819Z,18.50
2022-09-05T01:47:42.353Z,18.40
2022-09-05T01:50:27.133Z,18.40
2022-09-05T01:53:23.378Z,18.30
2022-09-05T01:56:12.316Z,18.30
2022-09-05T01:59:00.516Z,18.30
2022-09-05T02:01:42.083Z,18.30
2022-09-05T02:04:46.387Z,18.30
2022-09-05T02:07:31.904Z,18.30
2022-09-05T02:10:40.521Z,18.20
2022-09-05T02:13:26.848Z,18.20
2022-09-05T02:16:10.577Z,18.20
2022-09-05T02:19:01.307Z,18.20
2022-09-05T02:21:56.300Z,18.10
2022-09-05T02:24:40.995Z,18.10
2022-09-05T02:28:03.886Z,18.10
2022-09-05T02:30:21.906Z,18.10
2022-09-05T02:33:17.408Z,18.00
2022-09-05T02:35:56.863Z,18.00
2022-09-05T02:43:51.855Z,18.00
2022-09-05T02:45:12.931Z,18.00
2022-09-05T02:45:16.343Z,18.00
2022-09-05T02:47:35.686Z,17.90
2022-09-05T02:52:30.623Z,17.90
2022-09-05T02:57:37.440Z,17.90
2022-09-05T02:58:06.554Z,17.90
2022-09-05T02:59:35.985Z,17.90
2022-09-05T03:02:25.461Z,17.90
2022-09-05T03:05:04.825Z,17.90
2022-09-05T03:08:04.662Z,17.80
2022-09-05T03:11:05.651Z,17.80
2022-09-05T03:14:26.505Z,17.80
2022-09-05T03:17:27.605Z,17.70
2022-09-05T03:20:23.882Z,17.70
2022-09-05T03:23:35.380Z,17.70
2022-09-05T03:26:52.266Z,17.60
2022-09-05T03:29:58.426Z,17.70
2022-09-05T03:33:16.089Z,17.60
2022-09-05T03:36:28.541Z,17.60
2022-09-05T03:39:48.130Z,17.60
2022-09-05T03:42:43.443Z,17.60
2022-09-05T03:45:36.907Z,17.60
2022-09-05T03:48:45.665Z,17.60
2022-09-05T03:57:05.935Z,17.60
2022-09-05T03:57:18.915Z,17.60
2022-09-05T03:58:16.869Z,17.50
2022-09-05T04:01:22.671Z,17.50
2022-09-05T04:08:16.080Z,17.50
2022-09-05T04:08:23.962Z,17.50
2022-09-05T04:09:56.995Z,17.50
2022-09-05T04:12:36.493Z,17.50
2022-09-05T04:15:08.879Z,17.50
2022-09-05T04:17:50.626Z,17.40
2022-09-05T04:20:25.966Z,17.50
2022-09-05T04:23:20.539Z,17.40
2022-09-05T04:26:19.548Z,17.40
2022-09-05T04:29:10.668Z,17.40
2022-09-05T04:32:00.996Z,17.40
2022-09-05T04:34:57.600Z,17.40
2022-09-05T04:37:47.929Z,17.40
2022-09-05T04:40:42.592Z,17.30
2022-09-05T04:43:20.448Z,17.30
2022-09-05T04:46:01.563Z,17.30
2022-09-05T04:48:36.612Z,17.30
2022-09-05T04:51:15.521Z,17.30
2022-09-05T04:54:08.199Z,17.30
2022-09-05T04:56:49.469Z,17.30
2022-09-05T05:04:32.430Z,17.30
2022-09-05T05:06:14.889Z,17.30
2022-09-05T05:06:17.544Z,17.20
2022-09-05T05:08:38.227Z,17.20
2022-09-05T05:16:54.352Z,17.20
2022-09-05T05:18:11.658Z,17.20
2022-09-05T05:18:15.332Z,17.20
2022-09-05T05:20:42.673Z,17.10
2022-09-05T05:23:15.874Z,17.10
2022-09-05T05:25:55.597Z,17.10
2022-09-05T05:28:29.587Z,17.10
2022-09-05T05:31:18.638Z,17.10
2022-09-05T05:33:50.343Z,17.10
2022-09-05T05:36:30.628Z,17.10
2022-09-05T05:39:04.750Z,17.10
2022-09-05T05:41:47.581Z,17.20
2022-09-05T05:44:18.721Z,17.20
2022-09-05T05:47:05.901Z,17.30
2022-09-05T05:49:47.161Z,17.30
2022-09-05T05:52:54.527Z,17.30
2022-09-05T05:55:52.834Z,17.40
2022-09-05T05:59:08.612Z,17.50
2022-09-05T06:02:17.231Z,17.60
2022-09-05T06:05:29.985Z,17.60
2022-09-05T06:11:22.009Z,17.70
2022-09-05T06:14:49.273Z,17.80
2022-09-05T06:15:21.234Z,17.90
2022-09-05T06:18:26.066Z,18.00
2022-09-05T06:22:10.819Z,18.10
2022-09-05T06:25:16.410Z,18.20
2022-09-05T06:28:19.143Z,18.20
2022-09-05T06:31:10.708Z,18.30
2022-09-05T06:34:12.967Z,18.40
2022-09-05T06:37:01.693Z,18.50
2022-09-05T06:39:56.743Z,18.60
2022-09-05T06:42:43.172Z,18.70
2022-09-05T06:45:37.792Z,18.80
2022-09-05T06:48:14.481Z,19.00
2022-09-05T06:51:36.723Z,19.10
2022-09-05T06:54:41.350Z,19.20
2022-09-05T06:57:44.845Z,19.40
2022-09-05T07:00:29.572Z,19.50
2022-09-05T07:03:27.860Z,19.60
2022-09-05T07:06:01.787Z,19.80
2022-09-05T07:08:50.774Z,19.80
2022-09-05T07:11:50.582Z,19.90
2022-09-05T07:14:29.828Z,20.00
2022-09-05T07:17:08.368Z,20.10
2022-09-05T07:19:46.699Z,20.30
2022-09-05T07:22:46.612Z,20.40
2022-09-05T07:25:26.394Z,20.50
2022-09-05T07:28:25.944Z,20.60
2022-09-05T07:30:57.661Z,20.80
2022-09-05T07:33:29.473Z,21.00
2022-09-05T07:36:14.822Z,21.10
2022-09-05T07:38:52.133Z,21.20
2022-09-05T07:41:34.751Z,21.40
2022-09-05T07:44:07.449Z,21.60
2022-09-05T07:46:46.884Z,21.70
2022-09-05T07:49:20.704Z,21.90
2022-09-05T07:56:50.174Z,22.10
2022-09-05T07:56:50.532Z,22.00
2022-09-05T07:57:52.976Z,22.20
2022-09-05T08:00:27.117Z,22.30
2022-09-05T08:03:07.662Z,22.40
2022-09-05T08:05:47.195Z,22.40
2022-09-05T08:08:25.690Z,22.50
2022-09-05T08:11:25.204Z,22.50
2022-09-05T08:14:38.534Z,22.70
2022-09-05T08:16:54.256Z,22.80
2022-09-05T08:19:53.015Z,22.90
2022-09-05T08:22:30.818Z,23.10
2022-09-05T08:25:11.770Z,23.20
2022-09-05T08:28:07.342Z,23.30
2022-09-05T08:30:51.875Z,23.50
2022-09-05T08:33:25.260Z,23.60
2022-09-05T08:36:03.759Z,23.80
2022-09-05T08:38:40.511Z,24.00
2022-09-05T08:41:49.982Z,24.10
2022-09-05T08:46:40.509Z,24.30
2022-09-05T08:47:25.843Z,24.40
2022-09-05T08:50:13.067Z,24.60
2022-09-05T08:53:02.849Z,24.90
2022-09-05T08:55:55.600Z,25.20
2022-09-05T08:58:46.765Z,25.40
2022-09-05T09:01:19.184Z,25.70
2022-09-05T09:05:00.686Z,26.00
2022-09-05T09:07:51.536Z,26.20
2022-09-05T09:10:39.890Z,26.40
2022-09-05T09:13:25.365Z,26.70
2022-09-05T09:16:11.028Z,27.00
2022-09-05T09:19:04.302Z,27.30
2022-09-05T09:21:47.766Z,27.60
2022-09-05T09:24:36.217Z,27.90
2022-09-05T09:27:15.799Z,28.10
2022-09-05T09:29:55.466Z,28.40
2022-09-05T09:32:31.979Z,28.40
2022-09-05T09:35:07.271Z,28.60
2022-09-05T09:38:04.760Z,28.90
2022-09-05T09:41:21.341Z,29.00
2022-09-05T09:44:28.811Z,29.20
2022-09-05T09:46:57.833Z,29.40
2022-09-05T09:49:46.873Z,29.60
2022-09-05T09:52:35.473Z,29.80
2022-09-05T09:55:48.813Z,29.80
2022-09-05T09:58:45.967Z,29.80
2022-09-05T10:01:38.908Z,29.90
2022-09-05T10:10:37.742Z,30.10
2022-09-05T10:11:09.012Z,30.40
2022-09-05T10:11:52.027Z,30.30
2022-09-05T10:15:11.300Z,30.50
2022-09-05T10:18:33.423Z,30.90
2022-09-05T10:21:46.058Z,31.20
2022-09-05T10:24:43.721Z,31.30
2022-09-05T10:27:45.680Z,31.20
2022-09-05T10:30:25.308Z,31.20
2022-09-05T10:35:13.147Z,31.40
2022-09-05T10:36:29.390Z,31.30
2022-09-05T10:39:15.871Z,31.40
2022-09-05T10:41:50.983Z,31.60
2022-09-05T10:44:40.840Z,31.80
2022-09-05T10:47:26.737Z,32.00
2022-09-05T10:50:12.040Z,32.00
2022-09-05T10:52:59.494Z,32.30
2022-09-05T10:55:41.856Z,32.60
2022-09-05T10:58:29.053Z,32.40
2022-09-05T11:02:20.364Z,32.30
2022-09-05T11:04:23.900Z,32.40
2022-09-05T11:07:04.883Z,32.60
2022-09-05T11:09:48.220Z,32.70
2022-09-05T11:12:47.889Z,32.80
2022-09-05T11:15:35.367Z,32.90
2022-09-05T11:18:15.909Z,33.00
2022-09-05T11:20:58.394Z,33.20
2022-09-05T11:23:40.058Z,33.30
2022-09-05T11:26:29.555Z,33.40
2022-09-05T11:29:09.983Z,33.40
2022-09-05T11:32:23.818Z,33.20
2022-09-05T11:39:51.485Z,33.50
2022-09-05T11:40:04.534Z,33.40
2022-09-05T11:42:00.060Z,33.30
2022-09-05T11:44:36.315Z,33.40
2022-09-05T11:47:47.031Z,33.30
2022-09-05T11:50:46.594Z,33.10
2022-09-05T11:54:04.099Z,33.10
2022-09-05T11:57:33.753Z,33.30
2022-09-05T12:00:32.974Z,33.50
2022-09-05T12:03:58.776Z,33.80
2022-09-05T12:07:02.947Z,34.10
2022-09-05T12:10:05.962Z,34.00
2022-09-05T12:12:44.495Z,33.70
2022-09-05T12:18:42.492Z,33.60
2022-09-05T12:21:38.229Z,33.70
2022-09-05T12:25:26.071Z,33.80
2022-09-05T12:27:35.651Z,34.10
2022-09-05T12:30:14.290Z,34.20
2022-09-05T12:36:01.493Z,33.70
2022-09-05T12:36:13.012Z,33.40
2022-09-05T12:40:43.604Z,33.20
2022-09-05T12:41:41.216Z,33.50
2022-09-05T12:42:13.920Z,32.80
2022-09-05T12:44:47.775Z,32.80
2022-09-05T12:47:28.974Z,33.20
2022-09-05T12:50:14.362Z,33.50
2022-09-05T12:52:52.956Z,33.80
2022-09-05T12:55:27.638Z,34.00
2022-09-05T13:02:58.007Z,33.90
2022-09-05T13:03:12.855Z,34.00
2022-09-05T13:04:32.242Z,34.10
2022-09-05T13:07:09.713Z,34.30
2022-09-05T13:10:02.696Z,34.40
2022-09-05T13:14:55.593Z,34.90
2022-09-05T13:15:58.243Z,35.10
2022-09-05T13:18:30.913Z,34.60
2022-09-05T13:21:12.062Z,34.70
2022-09-05T13:23:50.068Z,34.70
2022-09-05T13:26:30.242Z,34.40
2022-09-05T13:29:10.644Z,34.00
2022-09-05T13:38:01.630Z,33.90
2022-09-05T13:38:03.157Z,33.90
2022-09-05T13:41:07.368Z,34.10
2022-09-05T13:44:27.030Z,34.20
2022-09-05T13:46:58.853Z,34.40
2022-09-05T13:49:38.154Z,34.60
2022-09-05T13:52:28.080Z,34.90
2022-09-05T13:55:29.912Z,34.90
2022-09-05T13:58:07.678Z,34.60
2022-09-05T14:01:14.482Z,34.40
2022-09-05T14:07:46.334Z,34.60
2022-09-05T14:10:48.623Z,34.60
2022-09-05T14:13:28.268Z,34.20
2022-09-05T14:16:08.212Z,34.20
2022-09-05T14:19:08.107Z,34.30
2022-09-05T14:21:40.780Z,34.30
2022-09-05T14:24:27.402Z,34.20
2022-09-05T14:27:08.982Z,33.90
2022-09-05T14:29:46.979Z,33.60
2022-09-05T14:37:35.484Z,33.40
2022-09-05T14:37:45.377Z,33.20
2022-09-05T14:39:14.600Z,33.00
2022-09-05T14:42:15.738Z,32.80
2022-09-05T14:45:06.211Z,32.60
2022-09-05T14:48:02.500Z,32.30
2022-09-05T14:51:05.284Z,32.40
2022-09-05T14:59:44.900Z,32.10
2022-09-05T15:02:51.878Z,31.90
2022-09-05T15:02:56.990Z,31.80
2022-09-05T15:05:37.022Z,31.70
2022-09-05T15:09:19.829Z,31.50
2022-09-05T15:12:21.742Z,31.40
2022-09-05T15:14:16.059Z,31.40
2022-09-05T15:16:59.326Z,31.40
2022-09-05T15:20:15.151Z,31.30
2022-09-05T15:22:43.619Z,31.20
2022-09-05T15:25:25.196Z,31.10
2022-09-05T15:27:54.731Z,30.90
2022-09-05T15:30:35.651Z,30.90
2022-09-05T15:33:25.777Z,30.80
2022-09-05T15:36:01.332Z,30.70
2022-09-05T15:38:46.685Z,30.60
2022-09-05T15:41:31.178Z,30.50
2022-09-05T15:44:09.488Z,30.40
2022-09-05T15:47:08.153Z,30.30
2022-09-05T15:49:43.131Z,30.20
2022-09-05T15:52:39.142Z,30.20
2022-09-05T15:55:13.941Z,30.10
2022-09-05T15:57:54.245Z,30.10
2022-09-05T16:00:44.069Z,30.00
2022-09-05T16:05:36.904Z,29.90
2022-09-05T16:10:36.097Z,29.90
2022-09-05T16:10:49.375Z,29.90
2022-09-05T16:12:44.162Z,29.80
2022-09-05T16:18:03.095Z,29.80
2022-09-05T16:23:26.768Z,29.60
2022-09-05T16:23:28.886Z,29.70
2022-09-05T16:24:15.420Z,29.50
2022-09-05T16:26:47.694Z,29.50
2022-09-05T16:29:27.183Z,29.50
2022-09-05T16:32:21.156Z,29.40
2022-09-05T16:34:55.401Z,29.50
2022-09-05T16:37:36.246Z,29.40
2022-09-05T16:40:13.632Z,29.40
2022-09-05T16:42:52.198Z,29.40
2022-09-05T16:45:31.834Z,29.40
2022-09-05T16:48:20.409Z,29.40
2022-09-05T16:50:54.934Z,29.30
2022-09-05T16:53:47.420Z,29.20
2022-09-05T16:56:50.310Z,29.20
2022-09-05T16:59:22.779Z,29.10
2022-09-05T17:02:18.357Z,29.10
2022-09-05T17:05:04.859Z,29.00
2022-09-05T17:07:53.326Z,28.70
2022-09-05T17:10:25.632Z,28.50
2022-09-05T17:13:03.187Z,28.30
2022-09-05T17:15:51.936Z,28.10
2022-09-05T17:18:25.922Z,27.90
2022-09-05T17:21:05.443Z,27.70
2022-09-05T17:29:01.302Z,27.60
2022-09-05T17:29:28.160Z,27.60
2022-09-05T17:31:25.228Z,27.60
2022-09-05T17:32:47.646Z,27.70
2022-09-05T17:35:28.437Z,27.70
2022-09-05T17:38:36.856Z,27.60
2022-09-05T17:41:41.428Z,27.50
2022-09-05T17:44:19.469Z,27.50
2022-09-05T17:47:20.535Z,27.40
2022-09-05T17:50:19.512Z,27.40
2022-09-05T17:53:25.209Z,27.30
2022-09-05T17:56:13.813Z,27.20
2022-09-05T17:59:14.492Z,27.10
2022-09-05T18:01:44.247Z,27.10
2022-09-05T18:04:52.452Z,27.00
2022-09-05T18:07:58.584Z,26.80
2022-09-05T18:11:14.431Z,26.60
2022-09-05T18:14:04.856Z,26.40
2022-09-05T18:17:37.370Z,26.20
2022-09-05T18:20:00.385Z,26.00
2022-09-05T18:22:45.289Z,25.90
2022-09-05T18:28:28.637Z,25.80
2022-09-05T18:31:25.488Z,25.70
2022-09-05T18:34:53.323Z,25.50
2022-09-05T18:38:00.467Z,25.40
2022-09-05T18:41:05.310Z,25.30
2022-09-05T18:44:13.197Z,25.30
2022-09-05T18:46:52.516Z,25.20
2022-09-05T18:50:21.718Z,25.00
2022-09-05T18:52:26.277Z,24.90
2022-09-05T18:55:31.656Z,24.70
2022-09-05T18:57:58.965Z,24.60
2022-09-05T19:00:44.435Z,24.50
2022-09-05T19:03:25.553Z,24.40
2022-09-05T19:06:34.712Z,24.30
2022-09-05T19:09:02.417Z,24.20
2022-09-05T19:11:36.458Z,24.10
2022-09-05T19:14:26.396Z,24.00
2022-09-05T19:17:07.475Z,23.90
2022-09-05T19:20:33.900Z,23.80
2022-09-05T19:23:10.569Z,23.70
2022-09-05T19:25:51.539Z,23.60
2022-09-05T19:36:55.832Z,23.50
2022-09-05T19:36:58.703Z,23.60
2022-09-05T19:37:08.027Z,23.40
2022-09-05T19:37:29.117Z,23.40
2022-09-05T19:42:08.144Z,23.30
2022-09-05T19:47:41.874Z,23.20
2022-09-05T19:47:42.235Z,23.00
2022-09-05T19:48:45.261Z,22.70
2022-09-05T19:51:24.851Z,22.50
2022-09-05T19:54:04.439Z,22.50
2022-09-05T19:56:44.419Z,22.50
2022-09-05T19:59:22.551Z,22.50
2022-09-05T20:01:59.379Z,22.30
2022-09-05T20:04:39.592Z,22.10
2022-09-05T20:07:23.566Z,21.80
2022-09-05T20:09:53.130Z,21.50
2022-09-05T20:12:30.586Z,21.30
2022-09-05T20:15:35.961Z,21.10
2022-09-05T20:18:28.761Z,21.00
2022-09-05T20:20:59.283Z,20.50
2022-09-05T20:23:37.411Z,20.00
2022-09-05T20:26:06.485Z,19.80
2022-09-05T20:28:44.444Z,19.90
2022-09-05T20:31:20.269Z,19.90
2022-09-05T20:33:59.436Z,19.90
2022-09-05T20:43:07.736Z,19.90
2022-09-05T20:43:19.944Z,19.80
2022-09-05T20:43:31.023Z,19.70
2022-09-05T20:45:58.798Z,19.70
2022-09-05T20:54:13.959Z,19.60
2022-09-05T20:54:20.952Z,19.60
2022-09-05T20:54:39.579Z,19.60
2022-09-05T20:57:22.610Z,19.50
2022-09-05T20:59:51.123Z,19.60
2022-09-05T21:02:32.994Z,19.50
2022-09-05T21:05:06.914Z,19.50
2022-09-05T21:08:02.488Z,19.50
2022-09-05T21:10:55.692Z,19.50
2022-09-05T21:13:32.430Z,19.50
2022-09-05T21:16:16.534Z,19.50
2022-09-05T21:18:52.450Z,19.50
2022-09-05T21:21:28.999Z,19.50
2022-09-05T21:24:17.882Z,19.50
2022-09-05T21:27:01.105Z,19.50
2022-09-05T21:29:58.925Z,19.50
2022-09-05T21:32:31.820Z,19.50
2022-09-05T21:35:34.555Z,19.50
2022-09-05T21:38:06.062Z,19.40
2022-09-05T21:40:41.682Z,19.40
2022-09-05T21:47:33.453Z,19.30
2022-09-05T21:47:47.220Z,19.20
2022-09-05T21:48:57.099Z,19.20
2022-09-05T21:51:34.652Z,19.20
2022-09-05T21:59:13.433Z,19.10
2022-09-05T21:59:16.681Z,19.10
2022-09-05T22:00:14.916Z,19.10
2022-09-05T22:02:46.862Z,19.10
2022-09-05T22:05:21.497Z,19.20
2022-09-05T22:08:00.518Z,19.20
2022-09-05T22:10:43.426Z,19.20
2022-09-05T22:13:26.513Z,19.20
2022-09-05T22:16:10.750Z,19.20
2022-09-05T22:18:41.639Z,19.20
2022-09-05T22:21:34.045Z,19.20
2022-09-05T22:24:06.532Z,19.20
2022-09-05T22:27:11.162Z,19.20
2022-09-05T22:29:36.365Z,19.20
2022-09-05T22:32:11.582Z,19.10
2022-09-05T22:34:40.253Z,19.10
2022-09-05T22:37:15.529Z,19.10
2022-09-05T22:39:44.509Z,19.10
2022-09-05T22:42:21.588Z,19.20
2022-09-05T22:44:50.051Z,19.30
2022-09-05T22:47:26.536Z,19.20
2022-09-05T22:49:54.988Z,19.20
2022-09-05T22:52:29.531Z,19.20
2022-09-05T22:54:57.887Z,19.40
2022-09-05T22:57:34.529Z,19.60
2022-09-05T23:00:03.195Z,19.60
2022-09-05T23:02:41.621Z,19.20
2022-09-05T23:05:10.801Z,18.50
2022-09-05T23:07:45.720Z,18.10
2022-09-05T23:10:14.211Z,17.80
2022-09-05T23:12:50.746Z,17.70
2022-09-05T23:15:26.790Z,17.60
2022-09-05T23:18:02.754Z,17.60
2022-09-05T23:20:33.343Z,17.60
2022-09-05T23:23:13.979Z,17.60
2022-09-05T23:25:42.590Z,17.60
2022-09-05T23:28:19.624Z,17.60
2022-09-05T23:30:49.794Z,17.70
2022-09-05T23:33:24.570Z,17.80
2022-09-05T23:35:52.900Z,17.70
2022-09-05T23:38:27.743Z,17.60
2022-09-05T23:41:01.498Z,17.60
2022-09-05T23:43:38.607Z,17.60
2022-09-05T23:46:07.951Z,17.60
2022-09-05T23:48:42.581Z,17.50
2022-09-05T23:51:14.225Z,17.50
2022-09-05T23:53:49.606Z,17.50
2022-09-05T23:56:20.411Z,17.50
2022-09-05T23:58:56.591Z,17.50
